Time;durP1;ratioP1;P1;durP2;ratioP2;P2;SDS_P1;SDS_P2;PMS_P1;PMS_P2;Temp;Humidity;BMP_temperature;BMP_pressure;BME280_temperature;BME280_humidity;BME280_pressure;Samples;Min_cycle;Max_cycle;Signal;HPM_P1;HPM_P2
2021/04/24 00:01:56;;;;;;;;;;;7.00;99.90;;;;;;5091551;28;20333;-69
2021/04/24 00:04:21;;;;;;;;;;;7.00;99.90;;;;;;5092519;28;20000;-72
2021/04/24 00:06:47;;;;;;;;;;;6.90;99.90;;;;;;5093711;28;20253;-69
2021/04/24 00:09:12;;;;;;;;;;;6.80;99.90;;;;;;5094006;28;19908;-70
2021/04/24 00:11:38;;;;;;;;;;;6.70;99.90;;;;;;5092561;28;19915;-70
2021/04/24 00:14:04;;;;;;;;;;;6.80;99.90;;;;;;5092122;28;20014;-71
2021/04/24 00:16:29;;;;;;;;;;;6.80;99.90;;;;;;5093756;28;19998;-71
2021/04/24 00:18:55;;;;;;;;;;;6.80;99.90;;;;;;5093491;28;19981;-71
2021/04/24 00:21:20;;;;;;;;;;;6.70;99.90;;;;;;5093473;28;19912;-71
2021/04/24 00:23:46;;;;;;;;;;;6.70;99.90;;;;;;5093787;28;20082;-71
2021/04/24 00:26:11;;;;;;;;;;;6.70;99.90;;;;;;5093140;28;19916;-73
2021/04/24 00:28:37;;;;;;;;;;;6.70;99.90;;;;;;5092022;28;19908;-69
2021/04/24 00:31:03;;;;;;;;;;;6.80;99.90;;;;;;5092646;28;19914;-72
2021/04/24 00:33:28;;;;;;;;;;;6.70;99.90;;;;;;5091648;28;19981;-71
2021/04/24 00:35:54;;;;;;;;;;;6.70;99.90;;;;;;5092027;28;19950;-72
2021/04/24 00:38:19;;;;;;;;;;;6.70;99.90;;;;;;5092956;28;19908;-70
2021/04/24 00:40:45;;;;;;;;;;;6.70;99.90;;;;;;5093011;28;19916;-73
2021/04/24 00:43:12;;;;;;;;;;;6.70;99.90;;;;;;5092149;28;19908;-72
2021/04/24 00:45:38;;;;;;;;;;;6.60;99.90;;;;;;5093338;28;19915;-70
2021/04/24 00:48:04;;;;;;;;;;;6.60;99.90;;;;;;5091127;28;19908;-71
2021/04/24 00:50:31;;;;;;;;;;;6.60;99.90;;;;;;5092975;28;19908;-71
2021/04/24 00:52:57;;;;;;;;;;;6.50;99.90;;;;;;5092736;28;19918;-70
2021/04/24 00:55:22;;;;;;;;;;;6.60;99.90;;;;;;5093320;28;19998;-71
2021/04/24 00:57:48;;;;;;;;;;;6.50;99.90;;;;;;5093060;28;20348;-70
2021/04/24 01:00:15;;;;;;;;;;;6.50;99.90;;;;;;5087643;28;19915;-71
2021/04/24 01:02:40;;;;;;;;;;;6.50;99.90;;;;;;5091212;28;19915;-70
2021/04/24 01:05:10;;;;;;;;;;;6.50;99.90;;;;;;5092755;28;19953;-70
2021/04/24 01:07:36;;;;;;;;;;;6.50;99.90;;;;;;5092409;28;19952;-71
2021/04/24 01:10:03;;;;;;;;;;;6.50;99.90;;;;;;5091731;28;19915;-70
2021/04/24 01:12:29;;;;;;;;;;;6.50;99.90;;;;;;5092354;28;20367;-70
2021/04/24 01:14:54;;;;;;;;;;;6.50;99.90;;;;;;5092106;28;19916;-70
2021/04/24 01:17:20;;;;;;;;;;;6.50;99.90;;;;;;5091530;28;19908;-71
2021/04/24 01:19:45;;;;;;;;;;;6.50;99.90;;;;;;5092963;28;19959;-71
2021/04/24 01:22:11;;;;;;;;;;;6.50;99.90;;;;;;5092802;28;19908;-71
2021/04/24 01:24:37;;;;;;;;;;;6.40;99.90;;;;;;5091770;28;19914;-70
2021/04/24 01:27:03;;;;;;;;;;;6.50;99.90;;;;;;5093590;28;20296;-70
2021/04/24 01:29:29;;;;;;;;;;;6.40;99.90;;;;;;5094516;28;19912;-70
2021/04/24 01:31:55;;;;;;;;;;;6.40;99.90;;;;;;5094758;28;19908;-70
2021/04/24 01:34:20;;;;;;;;;;;6.40;99.90;;;;;;5094678;28;19915;-71
2021/04/24 01:36:46;;;;;;;;;;;6.30;99.90;;;;;;5096125;28;20364;-70
2021/04/24 01:39:11;;;;;;;;;;;6.30;99.90;;;;;;5111478;28;19975;-69
2021/04/24 01:41:37;;;;;;;;;;;6.30;99.90;;;;;;5112747;28;19908;-68
2021/04/24 01:44:03;;;;;;;;;;;6.30;99.90;;;;;;5115147;28;20014;-70
2021/04/24 01:46:28;;;;;;;;;;;6.30;99.90;;;;;;5112614;28;20002;-70
2021/04/24 01:48:54;;;;;;;;;;;6.30;99.90;;;;;;5099142;28;20364;-72
2021/04/24 01:51:20;;;;;;;;;;;6.30;99.90;;;;;;5097862;28;19915;-70
2021/04/24 01:53:45;;;;;;;;;;;6.20;99.90;;;;;;5096193;28;19920;-71
2021/04/24 01:56:11;;;;;;;;;;;6.20;99.90;;;;;;5093084;28;19918;-70
2021/04/24 01:58:37;;;;;;;;;;;6.20;99.90;;;;;;5096338;28;19958;-70
2021/04/24 02:01:05;;;;;;;;;;;6.10;99.90;;;;;;5094551;28;19923;-69
2021/04/24 02:03:30;;;;;;;;;;;6.20;99.90;;;;;;5096557;28;20003;-70
2021/04/24 02:05:56;;;;;;;;;;;6.20;99.90;;;;;;5091743;28;20407;-70
2021/04/24 02:08:23;;;;;;;;;;;6.20;99.90;;;;;;5094442;28;19908;-72
2021/04/24 02:10:51;;;;;;;;;;;6.10;99.90;;;;;;5096576;28;19915;-71
2021/04/24 02:13:19;;;;;;;;;;;6.10;99.90;;;;;;5093377;28;19908;-71
2021/04/24 02:15:44;;;;;;;;;;;6.10;99.90;;;;;;5095756;28;20407;-70
2021/04/24 02:18:10;;;;;;;;;;;6.10;99.90;;;;;;5094443;28;19908;-71
2021/04/24 02:20:36;;;;;;;;;;;6.10;99.90;;;;;;5093027;28;19939;-72
2021/04/24 02:23:03;;;;;;;;;;;6.10;99.90;;;;;;5095126;28;19908;-70
2021/04/24 02:25:28;;;;;;;;;;;6.10;99.90;;;;;;5095763;28;19915;-70
2021/04/24 02:27:55;;;;;;;;;;;6.10;99.90;;;;;;5093524;28;19908;-72
2021/04/24 02:30:21;;;;;;;;;;;6.10;99.90;;;;;;5093777;28;19926;-72
2021/04/24 02:32:46;;;;;;;;;;;6.00;99.90;;;;;;5093297;28;19943;-70
2021/04/24 02:35:14;;;;;;;;;;;6.00;99.90;;;;;;5094545;28;19958;-71
2021/04/24 02:37:39;;;;;;;;;;;6.00;99.90;;;;;;5093928;28;19908;-71
2021/04/24 02:40:10;;;;;;;;;;;6.00;99.90;;;;;;5095022;28;20279;-72
2021/04/24 02:42:36;;;;;;;;;;;6.00;99.90;;;;;;5093208;28;19935;-74
2021/04/24 02:45:05;;;;;;;;;;;6.00;99.90;;;;;;5094002;28;19908;-72
2021/04/24 02:47:31;;;;;;;;;;;6.00;99.90;;;;;;5091340;28;19912;-71
2021/04/24 02:49:57;;;;;;;;;;;6.00;99.90;;;;;;5093691;28;19907;-72
2021/04/24 02:52:22;;;;;;;;;;;5.90;99.90;;;;;;5094520;28;19908;-72
2021/04/24 02:54:48;;;;;;;;;;;5.90;99.90;;;;;;5094870;28;19908;-72
2021/04/24 02:57:13;;;;;;;;;;;5.90;99.90;;;;;;5093785;28;19994;-71
2021/04/24 02:59:39;;;;;;;;;;;5.90;99.90;;;;;;5087251;28;19974;-70
2021/04/24 03:02:04;;;;;;;;;;;5.90;99.90;;;;;;5088182;28;19912;-71
2021/04/24 03:04:30;;;;;;;;;;;5.90;99.90;;;;;;5080030;28;20261;-71
2021/04/24 03:06:55;;;;;;;;;;;5.90;99.90;;;;;;5090934;28;19908;-70
2021/04/24 03:09:21;;;;;;;;;;;5.80;99.90;;;;;;5089319;28;19955;-71
2021/04/24 03:11:47;;;;;;;;;;;5.80;99.90;;;;;;5086127;28;19912;-72
2021/04/24 03:14:12;;;;;;;;;;;5.80;99.90;;;;;;5082355;28;20411;-71
2021/04/24 03:16:38;;;;;;;;;;;5.70;99.90;;;;;;5093791;28;20015;-72
2021/04/24 03:19:05;;;;;;;;;;;5.80;99.90;;;;;;5085920;28;19918;-71
2021/04/24 03:21:30;;;;;;;;;;;5.70;99.90;;;;;;5093383;28;19914;-71
2021/04/24 03:23:56;;;;;;;;;;;5.70;99.90;;;;;;5093987;28;19998;-71
2021/04/24 03:26:22;;;;;;;;;;;5.70;99.90;;;;;;5089906;28;20002;-70
2021/04/24 03:28:48;;;;;;;;;;;5.70;99.90;;;;;;5094303;28;19931;-71
2021/04/24 03:31:13;;;;;;;;;;;5.70;99.90;;;;;;5093660;28;19908;-71
2021/04/24 03:33:39;;;;;;;;;;;5.60;99.90;;;;;;5091209;28;20348;-71
2021/04/24 03:36:05;;;;;;;;;;;5.60;99.90;;;;;;5097605;28;20276;-72
2021/04/24 03:38:30;;;;;;;;;;;5.60;99.90;;;;;;5095546;28;19908;-71
2021/04/24 03:40:56;;;;;;;;;;;5.50;99.90;;;;;;5102217;28;19967;-71
2021/04/24 03:43:21;;;;;;;;;;;5.50;99.90;;;;;;5112451;28;19919;-69
2021/04/24 03:45:47;;;;;;;;;;;5.50;99.90;;;;;;5111588;28;19939;-69
2021/04/24 03:48:12;;;;;;;;;;;5.60;99.90;;;;;;5110494;28;19908;-68
2021/04/24 03:50:38;;;;;;;;;;;5.60;99.90;;;;;;5102750;28;19917;-70
2021/04/24 03:53:03;;;;;;;;;;;5.60;99.90;;;;;;5096272;28;19986;-72
2021/04/24 03:55:29;;;;;;;;;;;5.50;99.90;;;;;;5095611;28;19908;-72
2021/04/24 03:57:55;;;;;;;;;;;5.60;99.90;;;;;;5095208;28;20019;-70
2021/04/24 04:00:22;;;;;;;;;;;5.50;99.90;;;;;;5071124;28;601785;-71
2021/04/24 04:02:49;;;;;;;;;;;5.50;99.90;;;;;;5093517;28;20007;-70
2021/04/24 04:05:15;;;;;;;;;;;5.40;99.90;;;;;;5094337;28;19915;-71
2021/04/24 04:07:41;;;;;;;;;;;5.40;99.90;;;;;;5094590;28;20253;-71
2021/04/24 04:10:07;;;;;;;;;;;5.40;99.90;;;;;;5094172;28;19916;-71
2021/04/24 04:12:33;;;;;;;;;;;5.40;99.90;;;;;;5092994;28;20251;-71
2021/04/24 04:14:58;;;;;;;;;;;5.40;99.90;;;;;;5094529;28;19908;-71
2021/04/24 04:17:24;;;;;;;;;;;5.40;99.90;;;;;;5094146;28;20312;-71
2021/04/24 04:19:49;;;;;;;;;;;5.40;99.90;;;;;;5094338;28;19954;-72
2021/04/24 04:22:14;;;;;;;;;;;5.40;99.90;;;;;;5093890;28;20273;-73
2021/04/24 04:24:40;;;;;;;;;;;5.40;99.90;;;;;;5093015;28;19908;-72
2021/04/24 04:27:05;;;;;;;;;;;5.50;99.90;;;;;;5094098;28;19912;-71
2021/04/24 04:29:32;;;;;;;;;;;5.50;99.90;;;;;;5092912;28;19908;-71
2021/04/24 04:31:57;;;;;;;;;;;5.50;99.90;;;;;;5092306;28;19961;-71
2021/04/24 04:34:23;;;;;;;;;;;5.40;99.90;;;;;;5092318;28;19908;-71
2021/04/24 04:36:48;;;;;;;;;;;5.40;99.90;;;;;;5093950;28;19908;-72
2021/04/24 04:39:14;;;;;;;;;;;5.40;99.90;;;;;;5092108;28;20006;-72
2021/04/24 04:41:39;;;;;;;;;;;5.40;99.90;;;;;;5088271;28;19961;-73
2021/04/24 04:44:05;;;;;;;;;;;5.50;99.90;;;;;;5093816;28;20283;-72
2021/04/24 04:46:30;;;;;;;;;;;5.50;99.90;;;;;;5092219;28;20011;-71
2021/04/24 04:48:56;;;;;;;;;;;5.50;99.90;;;;;;5091523;28;20416;-72
2021/04/24 04:51:21;;;;;;;;;;;5.50;99.90;;;;;;5093546;28;19908;-71
2021/04/24 04:53:47;;;;;;;;;;;5.50;99.90;;;;;;5093348;28;19972;-71
2021/04/24 04:56:12;;;;;;;;;;;5.50;99.90;;;;;;5091840;28;19915;-71
2021/04/24 04:58:38;;;;;;;;;;;5.60;99.90;;;;;;5091915;28;20393;-71
2021/04/24 05:01:03;;;;;;;;;;;5.60;99.90;;;;;;5091474;28;19916;-71
2021/04/24 05:03:29;;;;;;;;;;;5.70;99.90;;;;;;5084408;28;19915;-71
2021/04/24 05:05:54;;;;;;;;;;;5.70;99.90;;;;;;5093647;28;20392;-71
2021/04/24 05:08:20;;;;;;;;;;;5.80;99.90;;;;;;5091915;28;19954;-71
2021/04/24 05:10:45;;;;;;;;;;;5.90;99.90;;;;;;5091612;28;20009;-71
2021/04/24 05:13:11;;;;;;;;;;;5.90;99.90;;;;;;5092430;28;19953;-71
2021/04/24 05:15:36;;;;;;;;;;;6.00;99.90;;;;;;5090778;28;20423;-71
2021/04/24 05:18:02;;;;;;;;;;;6.10;99.90;;;;;;5092151;28;19916;-71
2021/04/24 05:20:27;;;;;;;;;;;6.10;99.90;;;;;;5085309;28;20006;-72
2021/04/24 05:22:53;;;;;;;;;;;6.20;99.90;;;;;;5092460;28;19908;-71
2021/04/24 05:25:18;;;;;;;;;;;6.30;99.90;;;;;;5078842;28;19912;-73
2021/04/24 05:27:46;;;;;;;;;;;6.40;99.90;;;;;;5089788;28;19908;-71
2021/04/24 05:30:12;;;;;;;;;;;6.50;99.90;;;;;;5086333;28;20045;-70
2021/04/24 05:32:37;;;;;;;;;;;6.60;99.90;;;;;;5085291;28;20039;-71
2021/04/24 05:35:03;;;;;;;;;;;6.70;99.90;;;;;;5088345;28;20391;-70
2021/04/24 05:37:29;;;;;;;;;;;6.70;99.90;;;;;;5088295;28;20356;-71
2021/04/24 05:39:56;;;;;;;;;;;6.70;99.90;;;;;;5095638;28;19966;-71
2021/04/24 05:42:21;;;;;;;;;;;6.70;99.90;;;;;;5093013;28;19913;-68
2021/04/24 05:44:47;;;;;;;;;;;6.80;99.90;;;;;;5103440;28;19908;-68
2021/04/24 05:47:12;;;;;;;;;;;6.80;99.90;;;;;;5110823;28;19967;-71
2021/04/24 05:49:38;;;;;;;;;;;6.90;99.90;;;;;;5110772;28;19908;-71
2021/04/24 05:52:06;;;;;;;;;;;6.90;99.90;;;;;;5104092;28;20322;-71
2021/04/24 05:54:33;;;;;;;;;;;6.90;99.90;;;;;;5096784;28;19908;-71
2021/04/24 05:56:58;;;;;;;;;;;6.90;99.90;;;;;;5095082;28;19912;-71
2021/04/24 05:59:24;;;;;;;;;;;7.00;99.90;;;;;;5093040;28;19912;-71
2021/04/24 06:01:49;;;;;;;;;;;7.10;99.90;;;;;;5092055;28;19919;-71
2021/04/24 06:04:15;;;;;;;;;;;7.30;99.90;;;;;;5092237;28;20499;-71
2021/04/24 06:06:41;;;;;;;;;;;7.40;99.90;;;;;;5081110;28;20364;-72
2021/04/24 06:09:06;;;;;;;;;;;7.60;99.90;;;;;;5084002;28;20268;-71
2021/04/24 06:11:33;;;;;;;;;;;7.60;99.90;;;;;;5073462;28;19955;-71
2021/04/24 06:13:58;;;;;;;;;;;7.80;99.90;;;;;;5084064;28;19916;-71
2021/04/24 06:16:24;;;;;;;;;;;7.90;99.90;;;;;;5086304;28;19915;-71
2021/04/24 06:18:49;;;;;;;;;;;8.10;99.90;;;;;;5091683;28;19912;-71
2021/04/24 06:21:15;;;;;;;;;;;8.20;99.90;;;;;;5091608;28;20361;-71
2021/04/24 06:23:40;;;;;;;;;;;8.20;99.90;;;;;;5091937;28;19915;-71
2021/04/24 06:26:06;;;;;;;;;;;8.20;99.90;;;;;;5096594;28;20370;-72
2021/04/24 06:28:31;;;;;;;;;;;8.20;99.90;;;;;;5096452;28;19908;-72
2021/04/24 06:30:57;;;;;;;;;;;8.20;99.90;;;;;;5095077;28;19908;-71
2021/04/24 06:33:22;;;;;;;;;;;8.40;99.90;;;;;;5085243;28;19927;-71
2021/04/24 06:35:48;;;;;;;;;;;8.40;99.90;;;;;;5093384;28;20369;-72
2021/04/24 06:38:13;;;;;;;;;;;8.50;99.90;;;;;;5096242;28;20284;-72
2021/04/24 06:40:39;;;;;;;;;;;8.60;99.90;;;;;;5094319;28;19912;-71
2021/04/24 06:43:05;;;;;;;;;;;8.70;99.90;;;;;;5095766;28;19919;-71
2021/04/24 06:45:30;;;;;;;;;;;8.60;99.90;;;;;;5094819;28;20392;-72
2021/04/24 06:47:55;;;;;;;;;;;8.60;99.90;;;;;;5095178;28;19992;-71
2021/04/24 06:50:21;;;;;;;;;;;8.60;99.90;;;;;;5094401;28;19908;-72
2021/04/24 06:52:47;;;;;;;;;;;8.80;99.90;;;;;;5086884;28;19908;-72
2021/04/24 06:55:13;;;;;;;;;;;9.10;99.90;;;;;;5094460;28;19908;-72
2021/04/24 06:57:39;;;;;;;;;;;9.10;99.90;;;;;;5094102;28;20383;-72
2021/04/24 07:00:06;;;;;;;;;;;9.00;99.90;;;;;;5082435;28;19920;-72
2021/04/24 07:02:32;;;;;;;;;;;9.10;99.90;;;;;;5093258;28;20380;-72
2021/04/24 07:04:57;;;;;;;;;;;9.10;99.90;;;;;;5094560;28;19908;-71
2021/04/24 07:07:23;;;;;;;;;;;9.10;99.90;;;;;;5094885;28;19995;-71
2021/04/24 07:09:48;;;;;;;;;;;9.20;99.90;;;;;;5092039;28;19908;-72
2021/04/24 07:12:14;;;;;;;;;;;9.30;99.90;;;;;;5093750;28;19908;-72
2021/04/24 07:14:39;;;;;;;;;;;9.50;99.90;;;;;;5095321;28;19908;-71
2021/04/24 07:17:05;;;;;;;;;;;9.60;99.90;;;;;;5095739;28;19912;-71
2021/04/24 07:19:30;;;;;;;;;;;9.50;99.90;;;;;;5093676;28;19915;-73
2021/04/24 07:21:56;;;;;;;;;;;9.50;99.90;;;;;;5095105;28;19908;-72
2021/04/24 07:24:21;;;;;;;;;;;9.60;99.90;;;;;;5092773;28;19912;-72
2021/04/24 07:26:47;;;;;;;;;;;9.90;99.90;;;;;;5094069;28;19908;-72
2021/04/24 07:29:12;;;;;;;;;;;10.30;99.90;;;;;;5094594;28;19916;-71
2021/04/24 07:31:38;;;;;;;;;;;10.60;99.90;;;;;;5093868;28;19908;-72
2021/04/24 07:34:04;;;;;;;;;;;10.60;99.90;;;;;;5093076;28;19971;-72
2021/04/24 07:36:29;;;;;;;;;;;10.70;99.90;;;;;;5091860;28;19943;-72
2021/04/24 07:38:56;;;;;;;;;;;10.50;99.90;;;;;;5095794;28;19926;-72
2021/04/24 07:41:22;;;;;;;;;;;10.60;99.90;;;;;;5097963;28;20386;-72
2021/04/24 07:43:47;;;;;;;;;;;10.70;99.90;;;;;;5096799;28;19987;-73
2021/04/24 07:46:13;;;;;;;;;;;10.80;99.90;;;;;;5096036;28;20329;-72
2021/04/24 07:48:38;;;;;;;;;;;10.90;99.90;;;;;;5094712;28;19915;-71
2021/04/24 07:51:04;;;;;;;;;;;11.00;99.90;;;;;;5091567;28;20013;-71
2021/04/24 07:53:29;;;;;;;;;;;11.20;99.90;;;;;;5092797;28;19930;-71
2021/04/24 07:55:55;;;;;;;;;;;11.40;99.90;;;;;;5094107;28;20386;-71
2021/04/24 07:58:20;;;;;;;;;;;11.60;99.90;;;;;;5094179;28;19985;-70
2021/04/24 08:00:46;;;;;;;;;;;11.60;99.90;;;;;;5093088;28;20273;-70
2021/04/24 08:03:11;;;;;;;;;;;11.50;99.90;;;;;;5092401;28;19908;-70
2021/04/24 08:05:37;;;;;;;;;;;11.30;99.90;;;;;;5089346;28;19912;-70
2021/04/24 08:08:02;;;;;;;;;;;11.30;99.90;;;;;;5093018;28;19908;-71
2021/04/24 08:10:29;;;;;;;;;;;11.40;99.90;;;;;;5089937;28;19908;-71
2021/04/24 08:12:54;;;;;;;;;;;11.40;99.90;;;;;;5088552;28;19916;-72
2021/04/24 08:15:20;;;;;;;;;;;11.40;99.90;;;;;;5074654;28;20364;-71
2021/04/24 08:17:45;;;;;;;;;;;11.50;99.90;;;;;;5092283;28;20413;-70
2021/04/24 08:20:12;;;;;;;;;;;11.70;99.90;;;;;;5088141;28;20300;-70
2021/04/24 08:22:38;;;;;;;;;;;11.90;99.90;;;;;;5094569;28;19922;-72
2021/04/24 08:25:04;;;;;;;;;;;12.10;99.90;;;;;;5085216;28;19912;-70
2021/04/24 08:27:30;;;;;;;;;;;12.20;99.90;;;;;;5093861;28;19908;-71
2021/04/24 08:29:56;;;;;;;;;;;12.20;99.90;;;;;;5091611;28;20382;-71
2021/04/24 08:32:21;;;;;;;;;;;12.10;99.90;;;;;;5093643;28;19915;-71
2021/04/24 08:34:46;;;;;;;;;;;12.20;99.90;;;;;;5093183;28;19953;-71
2021/04/24 08:37:12;;;;;;;;;;;12.40;99.90;;;;;;5094303;28;19915;-72
2021/04/24 08:39:37;;;;;;;;;;;12.70;99.90;;;;;;5093388;28;19912;-71
2021/04/24 08:42:04;;;;;;;;;;;12.90;99.80;;;;;;5093719;28;19919;-71
2021/04/24 08:44:30;;;;;;;;;;;13.10;99.30;;;;;;5093187;28;20465;-71
2021/04/24 08:46:57;;;;;;;;;;;12.90;98.90;;;;;;5082892;28;19919;-71
2021/04/24 08:49:23;;;;;;;;;;;12.60;99.40;;;;;;5088311;28;19998;-72
2021/04/24 08:51:50;;;;;;;;;;;12.50;99.40;;;;;;5093515;28;19908;-71
2021/04/24 08:54:16;;;;;;;;;;;12.70;99.50;;;;;;5092182;28;20287;-71
2021/04/24 08:56:42;;;;;;;;;;;12.70;99.20;;;;;;5092570;28;19911;-71
2021/04/24 08:59:07;;;;;;;;;;;12.60;99.40;;;;;;5093810;28;19919;-72
2021/04/24 09:01:33;;;;;;;;;;;12.90;99.40;;;;;;5086276;28;19923;-71
2021/04/24 09:03:58;;;;;;;;;;;12.80;98.90;;;;;;5086276;28;19999;-71
2021/04/24 09:06:24;;;;;;;;;;;12.80;98.10;;;;;;5091526;28;19931;-71
2021/04/24 09:08:53;;;;;;;;;;;12.80;98.50;;;;;;5091957;28;19908;-71
2021/04/24 09:11:19;;;;;;;;;;;12.80;98.50;;;;;;5085921;28;19912;-74
2021/04/24 09:13:56;;;;;;;;;;;12.90;98.00;;;;;;5087168;28;20612;-71
2021/04/24 09:16:22;;;;;;;;;;;12.90;97.60;;;;;;5081286;28;19915;-70
2021/04/24 09:18:48;;;;;;;;;;;13.10;96.70;;;;;;5088418;28;20341;-71
2021/04/24 09:21:19;;;;;;;;;;;13.20;96.00;;;;;;5092396;28;19915;-69
2021/04/24 09:23:44;;;;;;;;;;;13.30;96.00;;;;;;5092058;28;20438;-71
2021/04/24 09:26:13;;;;;;;;;;;13.60;96.10;;;;;;5093339;28;19954;-72
2021/04/24 09:28:41;;;;;;;;;;;13.80;96.80;;;;;;5092769;28;20297;-71
2021/04/24 09:31:14;;;;;;;;;;;14.10;95.40;;;;;;5092506;28;20415;-71
2021/04/24 09:33:40;;;;;;;;;;;14.90;94.20;;;;;;5092314;28;19908;-71
2021/04/24 09:36:09;;;;;;;;;;;14.90;94.20;;;;;;5093141;28;20276;-71
2021/04/24 09:38:43;;;;;;;;;;;14.90;94.30;;;;;;5093522;28;20002;-69
2021/04/24 09:41:13;;;;;;;;;;;15.20;93.60;;;;;;5093526;28;19912;-71
2021/04/24 09:43:49;;;;;;;;;;;15.40;92.70;;;;;;5093816;28;19944;-71
2021/04/24 09:46:14;;;;;;;;;;;15.20;93.60;;;;;;5088004;28;19931;-71
2021/04/24 09:48:40;;;;;;;;;;;15.00;93.30;;;;;;5093349;28;19908;-72
2021/04/24 09:51:18;;;;;;;;;;;14.80;94.30;;;;;;5093311;28;19977;-71
2021/04/24 09:53:54;;;;;;;;;;;14.80;94.60;;;;;;5093355;28;19915;-71
2021/04/24 09:56:19;;;;;;;;;;;15.10;93.30;;;;;;5093795;28;19995;-71
2021/04/24 09:58:45;;;;;;;;;;;15.40;92.50;;;;;;5094689;28;19955;-71
2021/04/24 10:01:24;;;;;;;;;;;15.00;92.50;;;;;;5098153;28;19947;-71
2021/04/24 10:03:50;;;;;;;;;;;15.20;91.90;;;;;;5082354;28;20257;-71
2021/04/24 10:06:24;;;;;;;;;;;15.00;92.20;;;;;;5099117;28;19908;-71
2021/04/24 10:08:50;;;;;;;;;;;14.80;92.10;;;;;;5098981;28;19954;-71
2021/04/24 10:11:26;;;;;;;;;;;14.90;91.70;;;;;;5099373;28;20015;-70
2021/04/24 10:13:52;;;;;;;;;;;14.90;91.60;;;;;;5109882;28;19947;-73
2021/04/24 10:16:36;;;;;;;;;;;14.70;92.00;;;;;;5113623;28;19908;-69
2021/04/24 10:19:03;;;;;;;;;;;14.60;92.60;;;;;;5111230;28;19958;-70
2021/04/24 10:21:29;;;;;;;;;;;15.20;91.00;;;;;;5101018;28;19908;-69
2021/04/24 10:23:55;;;;;;;;;;;15.10;91.20;;;;;;5106565;28;19911;-70
2021/04/24 10:26:20;;;;;;;;;;;15.50;90.20;;;;;;5102539;28;19918;-70
2021/04/24 10:28:47;;;;;;;;;;;15.70;90.00;;;;;;5098277;28;19908;-69
2021/04/24 10:31:12;;;;;;;;;;;15.80;89.90;;;;;;5091604;28;19908;-71
2021/04/24 10:33:39;;;;;;;;;;;15.70;90.60;;;;;;5090445;28;19915;-72
2021/04/24 10:36:05;;;;;;;;;;;15.40;90.50;;;;;;5092742;28;19998;-71
2021/04/24 10:38:32;;;;;;;;;;;15.50;91.00;;;;;;5095069;28;20395;-70
2021/04/24 10:40:57;;;;;;;;;;;15.70;90.70;;;;;;5095596;28;20330;-71
2021/04/24 10:43:23;;;;;;;;;;;16.00;89.30;;;;;;5096052;28;19960;-71
2021/04/24 10:45:49;;;;;;;;;;;16.10;89.80;;;;;;5095611;28;19951;-71
2021/04/24 10:48:22;;;;;;;;;;;16.10;88.60;;;;;;5096380;28;19916;-71
2021/04/24 10:50:48;;;;;;;;;;;15.70;89.10;;;;;;5096648;28;19908;-72
2021/04/24 10:53:28;;;;;;;;;;;15.50;90.50;;;;;;5096397;28;19908;-70
2021/04/24 10:55:54;;;;;;;;;;;15.40;90.50;;;;;;5095879;28;19916;-71
2021/04/24 10:58:21;;;;;;;;;;;15.50;91.10;;;;;;5095269;28;19915;-71
2021/04/24 11:00:57;;;;;;;;;;;15.50;91.70;;;;;;5095879;28;19915;-70
2021/04/24 11:03:35;;;;;;;;;;;15.60;90.40;;;;;;5095118;28;19908;-71
2021/04/24 11:06:13;;;;;;;;;;;15.40;90.50;;;;;;5094896;28;19994;-71
2021/04/24 11:08:40;;;;;;;;;;;15.30;90.70;;;;;;5095132;28;19908;-70
2021/04/24 11:11:05;;;;;;;;;;;15.20;91.10;;;;;;5095544;28;20006;-70
2021/04/24 11:13:32;;;;;;;;;;;15.10;91.80;;;;;;5094807;28;20437;-69
2021/04/24 11:15:59;;;;;;;;;;;15.20;91.80;;;;;;5096113;28;19908;-71
2021/04/24 11:18:24;;;;;;;;;;;15.10;90.80;;;;;;5093501;28;19908;-71
2021/04/24 11:20:51;;;;;;;;;;;15.30;90.30;;;;;;5094100;28;19912;-71
2021/04/24 11:23:29;;;;;;;;;;;15.10;90.30;;;;;;5094399;28;19915;-70
2021/04/24 11:25:55;;;;;;;;;;;15.10;90.60;;;;;;5095746;28;19911;-71
2021/04/24 11:28:21;;;;;;;;;;;14.90;90.70;;;;;;5095538;28;19915;-71
2021/04/24 11:31:01;;;;;;;;;;;15.20;91.20;;;;;;5095624;28;19908;-71
2021/04/24 11:33:34;;;;;;;;;;;15.30;91.50;;;;;;5093056;28;19917;-72
2021/04/24 11:38:55;;;;;;;;;;;16.00;90.40;;;;;;5094601;28;20425;-71
2021/04/24 11:41:27;;;;;;;;;;;15.90;90.20;;;;;;5074477;28;19954;-72
2021/04/24 11:43:53;;;;;;;;;;;15.80;90.80;;;;;;5075413;28;19908;-72
2021/04/24 11:46:37;;;;;;;;;;;15.60;91.30;;;;;;5082162;28;19908;-71
2021/04/24 11:49:05;;;;;;;;;;;15.40;92.00;;;;;;5095498;28;19908;-70
2021/04/24 11:51:32;;;;;;;;;;;15.40;91.70;;;;;;5094023;28;19908;-70
2021/04/24 11:53:58;;;;;;;;;;;15.00;91.40;;;;;;5095107;28;19915;-71
2021/04/24 11:56:24;;;;;;;;;;;14.70;92.60;;;;;;5095122;28;20386;-71
2021/04/24 11:58:50;;;;;;;;;;;14.70;93.50;;;;;;5094154;28;19908;-71
2021/04/24 12:01:19;;;;;;;;;;;14.80;94.10;;;;;;5095002;28;19919;-71
2021/04/24 12:03:45;;;;;;;;;;;15.00;93.50;;;;;;5094094;28;19918;-71
2021/04/24 12:06:10;;;;;;;;;;;15.10;93.30;;;;;;5093635;28;20372;-72
2021/04/24 12:08:36;;;;;;;;;;;15.00;93.40;;;;;;5095422;28;19911;-71
2021/04/24 12:11:01;;;;;;;;;;;15.10;93.40;;;;;;5094677;28;19968;-70
2021/04/24 12:13:27;;;;;;;;;;;15.00;93.20;;;;;;5094955;28;20415;-72
2021/04/24 12:15:53;;;;;;;;;;;14.80;94.00;;;;;;5092518;28;19908;-71
2021/04/24 12:18:18;;;;;;;;;;;14.70;94.70;;;;;;5093299;28;19908;-71
2021/04/24 12:20:44;;;;;;;;;;;14.60;94.50;;;;;;5093990;28;19919;-74
2021/04/24 12:23:10;;;;;;;;;;;14.40;94.60;;;;;;5091043;28;20272;-72
2021/04/24 12:25:37;;;;;;;;;;;14.30;95.40;;;;;;5093402;28;19954;-72
2021/04/24 12:28:06;;;;;;;;;;;14.20;95.40;;;;;;5092254;28;20563;-72
2021/04/24 12:30:36;;;;;;;;;;;14.40;95.30;;;;;;5092106;28;20318;-72
2021/04/24 12:33:07;;;;;;;;;;;14.40;95.30;;;;;;5093623;28;19908;-70
2021/04/24 12:35:33;;;;;;;;;;;14.40;94.90;;;;;;5093623;28;20002;-72
2021/04/24 12:38:09;;;;;;;;;;;14.40;94.90;;;;;;5093349;28;20351;-71
2021/04/24 12:40:36;;;;;;;;;;;14.10;94.80;;;;;;5093523;28;19919;-71
2021/04/24 12:43:09;;;;;;;;;;;14.10;95.40;;;;;;5092527;28;19950;-71
2021/04/24 12:45:39;;;;;;;;;;;14.10;95.90;;;;;;5080815;28;19912;-71
2021/04/24 12:48:05;;;;;;;;;;;14.20;95.10;;;;;;5089945;28;19911;-72
2021/04/24 12:50:34;;;;;;;;;;;14.20;95.80;;;;;;5093065;28;19915;-71
2021/04/24 12:53:01;;;;;;;;;;;14.20;95.90;;;;;;5092322;28;19958;-73
2021/04/24 12:55:27;;;;;;;;;;;14.30;95.50;;;;;;5094123;28;20347;-73
2021/04/24 12:57:54;;;;;;;;;;;14.40;95.90;;;;;;5093617;28;19908;-71
2021/04/24 13:00:21;;;;;;;;;;;14.40;96.40;;;;;;5091274;28;19924;-72
2021/04/24 13:02:47;;;;;;;;;;;14.40;95.50;;;;;;5088977;28;19908;-72
2021/04/24 13:05:13;;;;;;;;;;;14.40;96.30;;;;;;5086368;28;19912;-72
2021/04/24 13:07:39;;;;;;;;;;;14.50;96.10;;;;;;5094418;28;20261;-71
2021/04/24 13:10:15;;;;;;;;;;;14.60;95.60;;;;;;5090802;28;19911;-72
2021/04/24 13:12:54;;;;;;;;;;;14.70;94.60;;;;;;5090032;28;20003;-72
2021/04/24 13:15:20;;;;;;;;;;;14.60;94.60;;;;;;5091978;28;19908;-72
2021/04/24 13:17:45;;;;;;;;;;;14.60;95.40;;;;;;5085330;28;19923;-71
2021/04/24 13:20:13;;;;;;;;;;;14.60;95.20;;;;;;5078561;28;19912;-72
2021/04/24 13:22:41;;;;;;;;;;;14.30;95.40;;;;;;5102532;28;19908;-71
2021/04/24 13:25:08;;;;;;;;;;;14.30;95.00;;;;;;5108353;28;19908;-70
2021/04/24 13:27:33;;;;;;;;;;;14.40;94.80;;;;;;5108098;28;19919;-69
2021/04/24 13:29:59;;;;;;;;;;;14.40;94.70;;;;;;5108059;28;20003;-69
2021/04/24 13:32:25;;;;;;;;;;;14.30;95.00;;;;;;5112345;28;19912;-73
2021/04/24 13:34:54;;;;;;;;;;;14.10;95.20;;;;;;5114315;28;19915;-69
2021/04/24 13:37:22;;;;;;;;;;;14.10;94.60;;;;;;5085717;28;20310;-70
2021/04/24 13:39:48;;;;;;;;;;;14.10;94.50;;;;;;5095658;28;20010;-70
2021/04/24 13:42:19;;;;;;;;;;;14.10;95.40;;;;;;5096363;28;19950;-72
2021/04/24 13:44:46;;;;;;;;;;;14.20;95.10;;;;;;5096291;28;19918;-73
2021/04/24 13:47:19;;;;;;;;;;;14.30;94.60;;;;;;5098493;28;19908;-71
2021/04/24 13:49:45;;;;;;;;;;;14.10;94.90;;;;;;5097133;28;19918;-70
2021/04/24 13:52:10;;;;;;;;;;;14.10;95.10;;;;;;5097194;28;20375;-71
2021/04/24 13:54:36;;;;;;;;;;;14.00;95.10;;;;;;5097925;28;20318;-70
2021/04/24 13:57:01;;;;;;;;;;;14.30;94.60;;;;;;5096447;28;20017;-70
2021/04/24 13:59:27;;;;;;;;;;;14.30;94.90;;;;;;5096761;28;20392;-72
2021/04/24 14:01:53;;;;;;;;;;;14.50;93.90;;;;;;5095144;28;20287;-72
2021/04/24 14:04:18;;;;;;;;;;;14.50;93.80;;;;;;5097605;28;19907;-72
2021/04/24 14:06:44;;;;;;;;;;;14.50;94.70;;;;;;5095259;28;19912;-74
2021/04/24 14:09:10;;;;;;;;;;;14.60;94.40;;;;;;5098765;28;19910;-71
2021/04/24 14:11:35;;;;;;;;;;;14.50;94.70;;;;;;5085215;28;20360;-71
2021/04/24 14:14:01;;;;;;;;;;;14.50;94.60;;;;;;5084133;28;19915;-70
2021/04/24 14:16:27;;;;;;;;;;;14.50;94.20;;;;;;5098149;28;19930;-71
2021/04/24 14:18:53;;;;;;;;;;;14.50;94.20;;;;;;5095388;28;19999;-71
2021/04/24 14:21:18;;;;;;;;;;;14.60;94.10;;;;;;5096333;28;19999;-71
2021/04/24 14:23:44;;;;;;;;;;;14.80;94.20;;;;;;5095647;28;19939;-72